createdAt,value
2019-06-07T00:00:55.139Z,59.68
2019-06-07T00:02:00.206Z,59.58
2019-06-07T00:03:09.234Z,59.56
2019-06-07T00:04:14.165Z,59.52
2019-06-07T00:05:19.998Z,59.52
2019-06-07T00:06:26.020Z,59.50
2019-06-07T00:07:31.517Z,59.50
2019-06-07T00:08:36.349Z,59.51
2019-06-07T00:09:40.581Z,59.53
2019-06-07T00:10:45.405Z,59.48
2019-06-07T00:11:49.599Z,59.44
2019-06-07T00:12:54.675Z,59.38
2019-06-07T00:13:59.935Z,59.33
2019-06-07T00:15:11.638Z,59.25
2019-06-07T00:16:14.953Z,59.21
2019-06-07T00:17:20.528Z,59.14
2019-06-07T00:18:26.127Z,59.20
2019-06-07T00:19:31.139Z,59.12
2019-06-07T00:20:35.337Z,59.07
2019-06-07T00:22:13.724Z,59.09
2019-06-07T00:22:46.149Z,59.14
2019-06-07T00:23:50.932Z,59.10
2019-06-07T00:24:55.128Z,59.18
2019-06-07T00:25:59.938Z,59.31
2019-06-07T00:27:05.112Z,59.34
2019-06-07T00:28:10.707Z,59.36
2019-06-07T00:29:17.308Z,59.36
2019-06-07T00:30:50.515Z,59.37
2019-06-07T00:31:28.149Z,59.35
2019-06-07T00:32:33.168Z,59.31
2019-06-07T00:33:37.364Z,59.59
2019-06-07T00:34:42.148Z,59.60
2019-06-07T00:35:46.341Z,59.79
2019-06-07T00:36:51.120Z,59.73
2019-06-07T00:37:55.445Z,59.70
2019-06-07T00:39:00.255Z,59.75
2019-06-07T00:40:17.824Z,59.77
2019-06-07T00:41:12.553Z,59.77
2019-06-07T00:42:20.573Z,59.88
2019-06-07T00:43:28.151Z,59.76
2019-06-07T00:44:29.337Z,59.69
2019-06-07T00:45:34.104Z,59.63
2019-06-07T00:46:38.301Z,59.57
2019-06-07T00:47:44.157Z,59.49
2019-06-07T00:48:48.540Z,59.45
2019-06-07T00:49:53.323Z,59.46
2019-06-07T00:50:57.565Z,59.46
2019-06-07T00:52:02.360Z,59.39
2019-06-07T00:53:18.248Z,59.41
2019-06-07T00:54:17.085Z,59.44
2019-06-07T00:55:22.233Z,59.46
2019-06-07T00:56:26.068Z,59.51
2019-06-07T00:57:30.285Z,59.59
2019-06-07T00:58:35.073Z,59.58
2019-06-07T00:59:39.358Z,59.50
2019-06-07T01:00:44.224Z,59.46
2019-06-07T01:01:48.423Z,59.43
2019-06-07T01:02:53.198Z,59.44
2019-06-07T01:03:57.394Z,59.46
2019-06-07T01:05:02.231Z,59.50
2019-06-07T01:06:07.879Z,59.52
2019-06-07T01:07:13.217Z,59.44
2019-06-07T01:08:19.941Z,59.39
2019-06-07T01:09:25.493Z,59.31
2019-06-07T01:10:52.465Z,59.31
2019-06-07T01:11:36.625Z,59.36
2019-06-07T01:12:42.159Z,59.47
2019-06-07T01:13:48.021Z,59.38
2019-06-07T01:14:52.224Z,59.37
2019-06-07T01:15:57.070Z,59.36
2019-06-07T01:17:27.606Z,59.29
2019-06-07T01:18:42.890Z,59.26
2019-06-07T01:19:27.643Z,59.08
2019-06-07T01:20:32.534Z,58.87
2019-06-07T01:21:36.756Z,58.72
2019-06-07T01:22:41.563Z,58.71
2019-06-07T01:24:07.935Z,58.72
2019-06-07T01:24:52.321Z,58.71
2019-06-07T01:25:56.538Z,58.75
2019-06-07T01:27:01.368Z,58.73
2019-06-07T01:28:06.733Z,58.68
2019-06-07T01:29:11.541Z,58.84
2019-06-07T01:30:16.227Z,59.18
2019-06-07T01:31:24.423Z,59.28
2019-06-07T01:32:31.415Z,59.40
2019-06-07T01:33:50.196Z,59.62
2019-06-07T01:34:39.668Z,59.56
2019-06-07T01:35:44.627Z,59.57
2019-06-07T01:36:48.796Z,59.69
2019-06-07T01:37:53.606Z,59.73
2019-06-07T01:38:57.828Z,59.73
2019-06-07T01:40:02.860Z,59.68
2019-06-07T01:41:07.058Z,59.72
2019-06-07T01:42:12.034Z,59.74
2019-06-07T01:43:17.004Z,59.71
2019-06-07T01:44:24.204Z,59.67
2019-06-07T01:45:30.921Z,59.67
2019-06-07T01:46:34.469Z,59.83
2019-06-07T01:47:38.724Z,59.74
2019-06-07T01:48:49.608Z,59.67
2019-06-07T01:49:50.356Z,59.70
2019-06-07T01:50:55.137Z,59.91
2019-06-07T01:51:59.516Z,59.95
2019-06-07T01:53:04.288Z,59.91
2019-06-07T01:55:15.143Z,60.19
2019-06-07T01:56:20.496Z,60.23
2019-06-07T01:57:38.425Z,60.33
2019-06-07T01:58:33.156Z,60.26
2019-06-07T01:59:37.946Z,60.25
2019-06-07T02:00:42.600Z,60.27
2019-06-07T02:01:47.437Z,60.16
2019-06-07T02:02:51.721Z,60.01
2019-06-07T02:03:56.657Z,60.07
2019-06-07T02:05:01.036Z,60.17
2019-06-07T02:06:05.820Z,60.15
2019-06-07T02:07:10.068Z,60.30
2019-06-07T02:08:14.855Z,60.30
2019-06-07T02:09:20.845Z,60.43
2019-06-07T02:10:30.288Z,60.36
2019-06-07T02:11:33.504Z,60.35
2019-06-07T02:12:43.178Z,60.28
2019-06-07T02:13:44.440Z,60.19
2019-06-07T02:14:49.257Z,60.13
2019-06-07T02:15:53.556Z,60.06
2019-06-07T02:16:58.359Z,60.01
2019-06-07T02:18:02.659Z,59.92
2019-06-07T02:19:07.551Z,59.81
2019-06-07T02:20:12.484Z,59.73
2019-06-07T02:21:17.271Z,59.62
2019-06-07T02:22:23.630Z,59.56
2019-06-07T02:23:31.107Z,59.52
2019-06-07T02:24:35.929Z,59.44
2019-06-07T02:25:48.443Z,59.29
2019-06-07T02:26:46.455Z,59.27
2019-06-07T02:27:51.305Z,59.21
2019-06-07T02:28:55.514Z,59.14
2019-06-07T02:30:00.343Z,59.20
2019-06-07T02:31:05.125Z,59.18
2019-06-07T02:32:09.911Z,59.09
2019-06-07T02:33:14.434Z,58.96
2019-06-07T02:34:19.214Z,58.94
2019-06-07T02:35:26.394Z,58.96
2019-06-07T02:36:36.566Z,58.97
2019-06-07T02:37:36.933Z,58.97
2019-06-07T02:38:43.366Z,58.81
2019-06-07T02:39:47.699Z,58.80
2019-06-07T02:40:52.495Z,58.77
2019-06-07T02:41:56.898Z,58.76
2019-06-07T02:43:01.640Z,58.68
2019-06-07T02:44:05.839Z,58.65
2019-06-07T02:45:11.179Z,58.73
2019-06-07T02:46:34.176Z,58.80
2019-06-07T02:47:35.983Z,58.84
2019-06-07T02:48:40.208Z,58.75
2019-06-07T02:49:44.915Z,58.72
2019-06-07T02:50:50.032Z,58.71
2019-06-07T02:51:54.888Z,58.73
2019-06-07T02:52:59.040Z,58.70
2019-06-07T02:54:03.888Z,58.62
2019-06-07T02:55:08.090Z,58.61
2019-06-07T02:56:37.462Z,58.61
2019-06-07T02:57:18.788Z,58.63
2019-06-07T02:58:26.149Z,58.43
2019-06-07T02:59:59.623Z,58.28
2019-06-07T03:01:00.543Z,58.10
2019-06-07T03:01:49.648Z,58.15
2019-06-07T03:02:54.427Z,58.13
2019-06-07T03:03:58.834Z,58.12
2019-06-07T03:05:06.916Z,58.16
2019-06-07T03:06:13.650Z,58.16
2019-06-07T03:07:18.420Z,58.23
2019-06-07T03:08:22.719Z,58.43
2019-06-07T03:09:30.845Z,58.55
2019-06-07T03:10:34.718Z,58.66
2019-06-07T03:11:41.612Z,58.82
2019-06-07T03:12:46.039Z,58.96
2019-06-07T03:13:50.825Z,59.25
2019-06-07T03:14:55.020Z,59.64
2019-06-07T03:16:01.342Z,60.11
2019-06-07T03:17:16.799Z,60.48
2019-06-07T03:18:41.611Z,61.31
2019-06-07T03:19:49.612Z,61.32
2019-06-07T03:21:04.894Z,61.50
2019-06-07T03:22:00.306Z,61.65
2019-06-07T03:23:05.434Z,61.74
2019-06-07T03:24:09.833Z,61.80
2019-06-07T03:25:14.609Z,61.93
2019-06-07T03:26:18.871Z,62.03
2019-06-07T03:27:35.114Z,61.91
2019-06-07T03:28:30.847Z,61.89
2019-06-07T03:29:36.648Z,61.83
2019-06-07T03:30:58.144Z,62.06
2019-06-07T03:31:48.354Z,61.99
2019-06-07T03:32:52.687Z,61.97
2019-06-07T03:33:57.466Z,61.89
2019-06-07T03:35:01.662Z,61.82
2019-06-07T03:36:23.308Z,61.80
2019-06-07T03:37:13.415Z,61.65
2019-06-07T03:38:18.219Z,61.64
2019-06-07T03:39:22.472Z,61.74
2019-06-07T03:40:27.194Z,61.80
2019-06-07T03:41:36.949Z,61.93
2019-06-07T03:42:39.767Z,61.87
2019-06-07T03:43:43.848Z,61.67
2019-06-07T03:44:48.807Z,61.73
2019-06-07T03:45:53.074Z,61.65
2019-06-07T03:46:57.851Z,61.56
2019-06-07T03:48:02.047Z,61.60
2019-06-07T03:49:06.907Z,61.40
2019-06-07T03:50:11.190Z,61.50
2019-06-07T03:51:26.895Z,61.61
2019-06-07T03:52:22.933Z,61.60
2019-06-07T03:53:30.464Z,61.67
2019-06-07T03:54:36.883Z,61.73
2019-06-07T03:55:41.251Z,62.17
2019-06-07T03:56:46.045Z,62.12
2019-06-07T03:58:56.731Z,62.08
2019-06-07T04:00:01.867Z,62.10
2019-06-07T04:01:06.134Z,62.27
2019-06-07T04:02:10.941Z,62.33
2019-06-07T04:03:32.849Z,62.33
2019-06-07T04:04:21.705Z,62.41
2019-06-07T04:05:25.973Z,62.45
2019-06-07T04:06:34.022Z,62.36
2019-06-07T04:07:43.755Z,62.48
2019-06-07T04:08:44.241Z,62.55
2019-06-07T04:09:48.799Z,62.70
2019-06-07T04:11:00.307Z,62.70
2019-06-07T04:11:59.624Z,62.56
2019-06-07T04:13:04.909Z,62.75
2019-06-07T04:14:09.160Z,62.80
2019-06-07T04:15:13.896Z,62.75
2019-06-07T04:16:18.093Z,62.92
2019-06-07T04:17:22.877Z,62.95
2019-06-07T04:18:28.146Z,63.12
2019-06-07T04:19:38.222Z,63.13
2019-06-07T04:20:41.313Z,63.21
2019-06-07T04:21:45.550Z,63.39
2019-06-07T04:22:49.798Z,63.17
2019-06-07T04:23:54.600Z,63.08
2019-06-07T04:24:58.796Z,63.01
2019-06-07T04:26:03.715Z,62.97
2019-06-07T04:27:07.910Z,62.89
2019-06-07T04:28:12.857Z,62.84
2019-06-07T04:29:47.325Z,62.83
2019-06-07T04:30:42.322Z,62.79
2019-06-07T04:31:46.581Z,62.86
2019-06-07T04:32:51.729Z,63.08
2019-06-07T04:33:55.935Z,63.09
2019-06-07T04:35:00.725Z,62.99
2019-06-07T04:36:04.915Z,62.80
2019-06-07T04:37:10.379Z,62.83
2019-06-07T04:38:15.170Z,62.70
2019-06-07T04:39:19.968Z,62.74
2019-06-07T04:40:24.169Z,62.85
2019-06-07T04:41:28.949Z,62.90
2019-06-07T04:42:36.527Z,63.22
2019-06-07T04:43:41.146Z,63.31
2019-06-07T04:44:46.009Z,63.26
2019-06-07T04:45:51.707Z,63.32
2019-06-07T04:46:57.816Z,63.41
2019-06-07T04:48:03.360Z,63.53
2019-06-07T04:49:07.644Z,63.67
2019-06-07T04:50:12.676Z,63.52
2019-06-07T04:51:16.950Z,63.43
2019-06-07T04:52:21.756Z,63.26
2019-06-07T04:53:25.992Z,63.34
2019-06-07T04:54:32.830Z,63.41
2019-06-07T04:55:39.616Z,63.57
2019-06-07T04:56:44.712Z,63.59
2019-06-07T04:57:50.763Z,63.60
2019-06-07T04:58:55.768Z,63.55
2019-06-07T05:00:22.235Z,63.58
2019-06-07T05:01:25.378Z,63.80
2019-06-07T05:02:12.425Z,64.13
2019-06-07T05:03:17.213Z,64.12
2019-06-07T05:04:21.508Z,64.09
2019-06-07T05:05:26.530Z,64.11
2019-06-07T05:06:34.836Z,64.25
2019-06-07T05:07:39.988Z,64.21
2019-06-07T05:08:43.927Z,64.20
2019-06-07T05:09:48.860Z,64.22
2019-06-07T05:10:53.096Z,64.23
2019-06-07T05:11:57.878Z,64.05
2019-06-07T05:13:02.076Z,63.79
2019-06-07T05:14:06.856Z,63.79
2019-06-07T05:15:11.050Z,63.81
2019-06-07T05:16:15.756Z,63.68
2019-06-07T05:17:19.964Z,63.59
2019-06-07T05:18:24.749Z,63.70
2019-06-07T05:19:30.590Z,63.56
2019-06-07T05:20:37.861Z,63.54
2019-06-07T05:22:02.101Z,63.67
2019-06-07T05:22:48.764Z,63.82
2019-06-07T05:24:06.384Z,63.81
2019-06-07T05:24:59.509Z,63.81
2019-06-07T05:26:04.534Z,63.84
2019-06-07T05:27:09.314Z,63.80
2019-06-07T05:28:13.536Z,63.81
2019-06-07T05:29:18.327Z,63.90
2019-06-07T05:31:44.942Z,64.22
2019-06-07T05:32:47.612Z,64.23
2019-06-07T05:33:53.356Z,64.50
2019-06-07T05:34:57.570Z,64.41
2019-06-07T05:36:02.545Z,64.33
2019-06-07T05:37:11.891Z,64.58
2019-06-07T05:38:12.988Z,64.94
2019-06-07T05:39:17.192Z,64.92
2019-06-07T05:40:39.453Z,64.60
2019-06-07T05:41:44.337Z,64.33
2019-06-07T05:42:49.336Z,64.14
2019-06-07T05:44:11.727Z,64.19
2019-06-07T05:44:59.944Z,64.36
2019-06-07T05:46:04.992Z,64.19
2019-06-07T05:47:09.833Z,63.96
2019-06-07T05:48:14.155Z,63.74
2019-06-07T05:49:19.060Z,63.61
2019-06-07T05:50:39.240Z,63.41
2019-06-07T05:51:29.850Z,63.50
2019-06-07T05:52:39.496Z,63.50
2019-06-07T05:53:43.141Z,63.38
2019-06-07T05:54:47.818Z,63.49
2019-06-07T05:55:52.598Z,63.58
2019-06-07T05:56:56.800Z,63.66
2019-06-07T05:58:01.715Z,63.54
2019-06-07T05:59:05.999Z,63.47
2019-06-07T06:00:10.779Z,63.27
2019-06-07T06:01:42.261Z,63.14
2019-06-07T06:02:22.985Z,63.13
2019-06-07T06:03:27.409Z,62.55
2019-06-07T06:04:33.746Z,62.42
2019-06-07T06:05:44.977Z,62.44
2019-06-07T06:06:47.368Z,62.68
2019-06-07T06:07:51.539Z,62.55
2019-06-07T06:09:12.939Z,62.80
2019-06-07T06:10:02.270Z,62.42
2019-06-07T06:11:08.409Z,62.41
2019-06-07T06:12:12.612Z,62.18
2019-06-07T06:13:17.422Z,62.39
2019-06-07T06:14:21.691Z,62.30
2019-06-07T06:15:41.472Z,62.32
2019-06-07T06:16:32.466Z,62.09
2019-06-07T06:17:40.897Z,62.73
2019-06-07T06:18:47.063Z,62.36
2019-06-07T06:19:53.221Z,62.53
2019-06-07T06:21:15.517Z,62.62
2019-06-07T06:22:02.051Z,62.44
2019-06-07T06:23:06.226Z,62.22
2019-06-07T06:24:10.999Z,61.65
2019-06-07T06:25:33.587Z,61.45
2019-06-07T06:26:21.782Z,61.60
2019-06-07T06:28:03.396Z,61.66
2019-06-07T06:28:32.601Z,61.93
2019-06-07T06:29:39.890Z,61.79
2019-06-07T06:30:47.009Z,61.72
2019-06-07T06:32:40.017Z,61.57
2019-06-07T06:32:58.542Z,61.29
2019-06-07T06:34:01.892Z,60.75
2019-06-07T06:35:08.291Z,60.47
2019-06-07T06:36:12.547Z,60.41
2019-06-07T06:37:17.390Z,60.61
2019-06-07T06:38:22.647Z,60.71
2019-06-07T06:39:27.420Z,60.66
2019-06-07T06:40:31.633Z,60.75
2019-06-07T06:41:50.686Z,60.42
2019-06-07T06:42:45.541Z,60.37
2019-06-07T06:43:52.579Z,60.33
2019-06-07T06:44:55.882Z,60.22
2019-06-07T06:46:00.734Z,60.05
2019-06-07T06:47:04.915Z,59.86
2019-06-07T06:48:09.724Z,60.18
2019-06-07T06:49:13.906Z,60.18
2019-06-07T06:50:18.857Z,60.25
2019-06-07T06:51:23.034Z,60.59
2019-06-07T06:52:27.822Z,60.47
2019-06-07T06:53:32.015Z,60.44
2019-06-07T06:54:43.186Z,60.17
2019-06-07T06:55:43.967Z,60.67
2019-06-07T06:56:50.349Z,60.76
2019-06-07T06:57:56.434Z,60.60
2019-06-07T06:59:34.119Z,60.20
2019-06-07T07:00:07.710Z,60.26
2019-06-07T07:01:12.712Z,60.25
2019-06-07T07:02:16.965Z,59.87
2019-06-07T07:03:55.439Z,60.14
2019-06-07T07:04:28.078Z,60.40
2019-06-07T07:05:32.817Z,60.07
2019-06-07T07:06:37.218Z,60.15
2019-06-07T07:07:42.691Z,59.74
2019-06-07T07:08:47.886Z,60.22
2019-06-07T07:09:58.738Z,60.36
2019-06-07T07:10:59.445Z,59.87
2019-06-07T07:12:11.714Z,59.92
2019-06-07T07:13:11.728Z,59.86
2019-06-07T07:14:16.677Z,59.84
2019-06-07T07:15:20.874Z,59.72
2019-06-07T07:16:25.638Z,59.99
2019-06-07T07:17:47.748Z,59.92
2019-06-07T07:18:36.669Z,59.46
2019-06-07T07:19:42.579Z,59.40
2019-06-07T07:20:49.904Z,59.85
2019-06-07T07:21:55.306Z,59.70
2019-06-07T07:23:00.795Z,59.30
2019-06-07T07:24:20.912Z,59.21
2019-06-07T07:25:11.743Z,59.27
2019-06-07T07:26:15.944Z,58.84
2019-06-07T07:27:20.783Z,58.62
2019-06-07T07:28:24.994Z,59.11
2019-06-07T07:29:29.786Z,58.77
2019-06-07T07:30:47.398Z,58.79
2019-06-07T07:31:56.132Z,58.41
2019-06-07T07:32:59.432Z,58.80
2019-06-07T07:35:10.288Z,59.35
2019-06-07T07:36:37.509Z,59.53
2019-06-07T07:37:21.134Z,59.37
2019-06-07T07:38:25.906Z,58.66
2019-06-07T07:39:30.161Z,59.11
2019-06-07T07:40:57.087Z,59.19
2019-06-07T07:41:40.938Z,59.63
2019-06-07T07:42:47.533Z,59.02
2019-06-07T07:44:04.302Z,59.61
2019-06-07T07:44:59.080Z,59.41
2019-06-07T07:46:28.005Z,59.30
2019-06-07T07:47:11.862Z,58.69
2019-06-07T07:48:18.584Z,57.77
2019-06-07T07:49:22.661Z,58.73
2019-06-07T07:50:27.010Z,57.89
2019-06-07T07:51:31.885Z,58.11
2019-06-07T07:52:36.054Z,58.06
2019-06-07T07:53:50.671Z,58.27
2019-06-07T07:54:46.862Z,58.38
2019-06-07T07:55:54.925Z,57.67
2019-06-07T07:56:57.547Z,58.10
2019-06-07T07:58:02.343Z,57.27
2019-06-07T07:59:08.150Z,56.47
2019-06-07T08:00:49.665Z,56.76
2019-06-07T08:01:19.414Z,56.19
2019-06-07T08:02:24.208Z,56.84
2019-06-07T08:03:29.451Z,56.76
2019-06-07T08:05:12.768Z,56.85
2019-06-07T08:05:43.351Z,56.62
2019-06-07T08:06:48.905Z,56.67
2019-06-07T08:07:56.524Z,56.59
2019-06-07T08:08:59.261Z,56.72
2019-06-07T08:10:05.282Z,55.90
2019-06-07T08:11:10.117Z,55.44
2019-06-07T08:12:14.344Z,54.74
2019-06-07T08:13:25.546Z,55.54
2019-06-07T08:14:24.986Z,54.54
2019-06-07T08:15:29.778Z,54.91
2019-06-07T08:16:33.941Z,55.63
2019-06-07T08:17:38.771Z,54.15
2019-06-07T08:18:43.014Z,52.66
2019-06-07T08:19:49.421Z,53.54
2019-06-07T08:21:20.440Z,53.79
2019-06-07T08:22:01.896Z,53.32
2019-06-07T08:23:06.173Z,54.25
2019-06-07T08:24:10.940Z,53.93
2019-06-07T08:25:15.116Z,53.88
2019-06-07T08:26:19.881Z,53.98
2019-06-07T08:27:26.264Z,54.15
2019-06-07T08:28:30.823Z,54.12
2019-06-07T08:29:44.756Z,53.80
2019-06-07T08:30:55.167Z,53.67
2019-06-07T08:31:48.315Z,53.44
2019-06-07T08:33:01.468Z,53.79
2019-06-07T08:34:00.817Z,52.96
2019-06-07T08:35:07.165Z,52.82
2019-06-07T08:36:19.976Z,53.44
2019-06-07T08:37:17.829Z,54.20
2019-06-07T08:38:27.596Z,53.12
2019-06-07T08:39:28.465Z,52.96
2019-06-07T08:40:32.661Z,53.62
2019-06-07T08:41:37.744Z,53.58
2019-06-07T08:43:04.479Z,52.69
2019-06-07T08:43:51.347Z,52.52
2019-06-07T08:45:01.249Z,53.52
2019-06-07T08:46:07.042Z,53.68
2019-06-07T08:47:19.748Z,53.66
2019-06-07T08:48:27.568Z,53.45
2019-06-07T08:49:20.137Z,52.70
2019-06-07T08:50:24.905Z,53.20
2019-06-07T08:51:29.085Z,52.93
2019-06-07T08:52:33.908Z,51.89
2019-06-07T08:53:38.881Z,51.73
2019-06-07T08:54:44.641Z,52.13
2019-06-07T08:55:48.842Z,51.77
2019-06-07T08:56:55.745Z,52.03
2019-06-07T08:58:04.198Z,51.67
2019-06-07T08:59:11.408Z,51.97
2019-06-07T09:00:43.124Z,51.07
2019-06-07T09:01:19.282Z,51.36
2019-06-07T09:02:25.679Z,52.01
2019-06-07T09:03:29.970Z,52.10
2019-06-07T09:04:34.149Z,52.01
2019-06-07T09:05:38.913Z,52.07
2019-06-07T09:08:07.092Z,51.87
2019-06-07T09:08:58.139Z,51.56
2019-06-07T09:10:09.337Z,51.21
2019-06-07T09:11:11.324Z,51.39
2019-06-07T09:12:14.856Z,51.36
2019-06-07T09:13:19.069Z,51.05
2019-06-07T09:14:23.871Z,51.24
2019-06-07T09:15:28.314Z,51.64
2019-06-07T09:16:33.078Z,51.36
2019-06-07T09:17:37.326Z,50.67
2019-06-07T09:18:44.785Z,51.19
2019-06-07T09:19:48.085Z,50.62
2019-06-07T09:20:53.673Z,50.40
2019-06-07T09:22:04.588Z,50.09
2019-06-07T09:23:11.567Z,50.18
2019-06-07T09:24:12.163Z,50.79
2019-06-07T09:25:21.867Z,50.47
2019-06-07T09:26:23.997Z,50.67
2019-06-07T09:27:28.768Z,50.72
2019-06-07T09:28:33.134Z,49.97
2019-06-07T09:29:37.899Z,49.60
2019-06-07T09:30:45.612Z,49.09
2019-06-07T09:31:53.150Z,48.96
2019-06-07T09:32:57.278Z,49.09
2019-06-07T09:34:08.640Z,49.11
2019-06-07T09:35:16.485Z,49.08
2019-06-07T09:36:15.240Z,49.47
2019-06-07T09:38:26.865Z,49.26
2019-06-07T09:39:31.341Z,49.09
2019-06-07T09:40:36.105Z,49.19
2019-06-07T09:41:49.287Z,48.95
2019-06-07T09:42:47.016Z,49.26
2019-06-07T09:44:04.725Z,49.21
2019-06-07T09:45:02.161Z,49.41
2019-06-07T09:46:11.210Z,47.92
2019-06-07T09:47:30.651Z,47.47
2019-06-07T09:49:08.416Z,47.43
2019-06-07T09:49:32.108Z,48.23
2019-06-07T09:50:29.972Z,48.49
2019-06-07T09:51:34.736Z,47.89
2019-06-07T09:52:57.357Z,47.67
2019-06-07T09:53:45.390Z,49.21
2019-06-07T09:55:22.236Z,48.95
2019-06-07T09:55:56.751Z,48.73
2019-06-07T09:57:05.321Z,47.90
2019-06-07T09:58:48.539Z,47.78
2019-06-07T09:59:14.429Z,48.03
2019-06-07T10:00:39.949Z,47.61
2019-06-07T10:01:25.699Z,47.94
2019-06-07T10:02:30.471Z,46.97
2019-06-07T10:03:34.649Z,48.00
2019-06-07T10:04:39.413Z,48.00
2019-06-07T10:05:44.568Z,47.72
2019-06-07T10:06:49.091Z,46.89
2019-06-07T10:08:09.725Z,46.80
2019-06-07T10:11:13.732Z,46.92
2019-06-07T10:12:17.952Z,46.58
2019-06-07T10:13:22.887Z,45.81
2019-06-07T10:14:27.067Z,45.99
2019-06-07T10:15:31.902Z,46.22
2019-06-07T10:16:46.301Z,46.25
2019-06-07T10:17:42.638Z,45.87
2019-06-07T10:18:46.944Z,46.09
2019-06-07T10:19:51.699Z,46.27
2019-06-07T10:20:55.949Z,46.11
2019-06-07T10:22:01.355Z,45.00
2019-06-07T10:23:05.860Z,44.95
2019-06-07T10:24:10.675Z,44.54
2019-06-07T10:25:14.943Z,44.58
2019-06-07T10:26:19.784Z,44.84
2019-06-07T10:27:23.971Z,44.33
2019-06-07T10:28:28.737Z,44.10
2019-06-07T10:29:32.933Z,44.37
2019-06-07T10:30:37.808Z,44.66
2019-06-07T10:31:41.989Z,44.53
2019-06-07T10:32:46.753Z,44.34
2019-06-07T10:33:50.934Z,44.91
2019-06-07T10:34:55.701Z,44.50
2019-06-07T10:36:00.336Z,44.68
2019-06-07T10:37:07.638Z,42.45
2019-06-07T10:38:10.934Z,42.53
2019-06-07T10:39:15.698Z,43.67
2019-06-07T10:40:20.222Z,44.40
2019-06-07T10:41:24.991Z,44.61
2019-06-07T10:42:29.164Z,44.48
2019-06-07T10:43:33.924Z,43.84
2019-06-07T10:44:38.108Z,43.79
2019-06-07T10:45:42.989Z,43.94
2019-06-07T10:46:47.178Z,43.87
2019-06-07T10:47:51.934Z,43.81
2019-06-07T10:48:56.183Z,43.80
2019-06-07T10:50:01.917Z,43.65
2019-06-07T10:51:06.462Z,43.81
2019-06-07T10:52:11.624Z,43.81
2019-06-07T10:53:17.371Z,43.68
2019-06-07T10:54:29.625Z,44.02
2019-06-07T10:55:28.986Z,43.36
2019-06-07T10:56:33.884Z,44.22
2019-06-07T10:57:38.064Z,43.43
2019-06-07T10:58:42.973Z,42.99
2019-06-07T10:59:47.149Z,43.62
2019-06-07T11:00:51.922Z,43.65
2019-06-07T11:01:56.278Z,42.43
2019-06-07T11:03:01.377Z,42.15
2019-06-07T11:04:05.800Z,42.16
2019-06-07T11:05:12.342Z,42.07
2019-06-07T11:06:16.642Z,42.17
2019-06-07T11:07:21.506Z,42.28
2019-06-07T11:08:26.637Z,42.96
2019-06-07T11:09:31.541Z,42.66
2019-06-07T11:10:35.697Z,41.64
2019-06-07T11:11:40.544Z,42.02
2019-06-07T11:12:44.748Z,42.48
2019-06-07T11:13:52.392Z,40.77
2019-06-07T11:14:55.426Z,41.43
2019-06-07T11:16:00.206Z,42.21
2019-06-07T11:17:05.144Z,41.78
2019-06-07T11:18:10.339Z,41.78
2019-06-07T11:19:17.784Z,42.28
2019-06-07T11:20:21.401Z,40.38
2019-06-07T11:21:25.782Z,40.38
2019-06-07T11:22:30.654Z,40.32
2019-06-07T11:23:34.829Z,40.02
2019-06-07T11:24:39.613Z,41.15
2019-06-07T11:25:43.801Z,41.70
2019-06-07T11:26:48.562Z,42.18
2019-06-07T11:27:52.741Z,42.41
2019-06-07T11:28:57.504Z,42.38
2019-06-07T11:30:01.705Z,42.27
2019-06-07T11:31:06.534Z,42.15
2019-06-07T11:32:10.783Z,42.04
2019-06-07T11:33:16.479Z,41.85
2019-06-07T11:34:20.809Z,41.80
2019-06-07T11:35:25.574Z,42.11
2019-06-07T11:36:29.860Z,42.43
2019-06-07T11:37:34.596Z,42.40
2019-06-07T11:38:38.853Z,42.55
2019-06-07T11:39:43.565Z,42.30
2019-06-07T11:40:47.758Z,42.24
2019-06-07T11:41:52.521Z,41.99
2019-06-07T11:42:56.701Z,41.42
2019-06-07T11:44:01.530Z,40.37
2019-06-07T11:45:07.938Z,40.58
2019-06-07T11:46:13.022Z,40.60
2019-06-07T11:47:18.450Z,40.82
2019-06-07T11:48:24.485Z,40.92
2019-06-07T11:49:28.634Z,39.99
2019-06-07T11:50:33.426Z,40.40
2019-06-07T11:51:37.608Z,40.36
2019-06-07T11:52:45.454Z,40.91
2019-06-07T11:53:48.251Z,41.21
2019-06-07T11:54:53.272Z,40.42
2019-06-07T11:55:57.493Z,39.04
2019-06-07T11:57:02.273Z,39.38
2019-06-07T11:58:11.105Z,40.42
2019-06-07T11:59:13.348Z,39.76
2019-06-07T12:00:19.193Z,40.36
2019-06-07T12:01:24.312Z,40.81
2019-06-07T12:02:28.501Z,40.72
2019-06-07T12:03:33.351Z,40.94
2019-06-07T12:04:37.515Z,41.42
2019-06-07T12:05:42.285Z,39.89
2019-06-07T12:06:46.745Z,39.94
2019-06-07T12:07:51.517Z,40.25
2019-06-07T12:08:55.691Z,39.71
2019-06-07T12:10:00.488Z,39.07
2019-06-07T12:11:04.661Z,39.04
2019-06-07T12:12:10.329Z,38.69
2019-06-07T12:13:15.574Z,39.13
2019-06-07T12:14:21.228Z,39.92
2019-06-07T12:15:25.401Z,39.61
2019-06-07T12:16:30.204Z,39.11
2019-06-07T12:17:34.434Z,39.38
2019-06-07T12:18:39.210Z,39.37
2019-06-07T12:19:43.385Z,39.53
2019-06-07T12:20:48.190Z,39.85
2019-06-07T12:21:52.398Z,38.46
2019-06-07T12:22:57.232Z,37.96
2019-06-07T12:24:01.433Z,37.70
2019-06-07T12:25:07.441Z,37.12
2019-06-07T12:26:12.278Z,37.11
2019-06-07T12:27:17.146Z,37.94
2019-06-07T12:28:21.399Z,37.54
2019-06-07T12:29:26.321Z,37.38
2019-06-07T12:30:30.560Z,38.25
2019-06-07T12:31:35.622Z,39.26
2019-06-07T12:32:39.803Z,39.64
2019-06-07T12:33:44.938Z,39.04
2019-06-07T12:34:49.213Z,37.10
2019-06-07T12:35:53.996Z,37.17
2019-06-07T12:36:58.193Z,37.18
2019-06-07T12:38:03.074Z,37.82
2019-06-07T12:39:07.953Z,38.16
2019-06-07T12:40:23.021Z,38.91
2019-06-07T12:41:18.831Z,39.05
2019-06-07T12:42:23.594Z,38.85
2019-06-07T12:43:27.846Z,38.85
2019-06-07T12:44:32.920Z,39.32
2019-06-07T12:45:45.232Z,40.13
2019-06-07T12:46:43.662Z,40.51
2019-06-07T12:47:48.876Z,40.38
2019-06-07T12:48:53.683Z,40.20
2019-06-07T12:49:57.930Z,39.82
2019-06-07T12:51:02.921Z,39.13
2019-06-07T12:52:07.099Z,39.08
2019-06-07T12:53:13.480Z,38.82
2019-06-07T12:54:17.801Z,38.99
2019-06-07T12:55:24.442Z,38.80
2019-06-07T12:56:28.566Z,38.81
2019-06-07T12:57:33.403Z,39.04
2019-06-07T12:58:39.533Z,38.87
2019-06-07T12:59:44.049Z,38.96
2019-06-07T13:00:48.620Z,38.79
2019-06-07T13:01:53.386Z,38.53
2019-06-07T13:02:57.634Z,38.57
2019-06-07T13:04:02.483Z,38.37
2019-06-07T13:05:07.615Z,38.21
2019-06-07T13:06:12.469Z,38.51
2019-06-07T13:07:17.958Z,38.61
2019-06-07T13:08:23.932Z,38.01
2019-06-07T13:09:29.140Z,37.60
2019-06-07T13:10:33.968Z,37.55
2019-06-07T13:11:38.193Z,37.65
2019-06-07T13:12:44.096Z,36.93
2019-06-07T13:13:48.353Z,36.89
2019-06-07T13:14:53.286Z,37.01
2019-06-07T13:15:57.677Z,36.89
2019-06-07T13:17:02.899Z,36.50
2019-06-07T13:18:07.087Z,36.35
2019-06-07T13:19:11.849Z,37.23
2019-06-07T13:20:16.210Z,36.96
2019-06-07T13:21:22.290Z,37.75
2019-06-07T13:22:26.661Z,37.72
2019-06-07T13:23:32.006Z,37.18
2019-06-07T13:24:36.229Z,37.38
2019-06-07T13:25:46.618Z,37.62
2019-06-07T13:26:48.889Z,37.11
2019-06-07T13:27:53.665Z,36.32
2019-06-07T13:28:58.359Z,36.21
2019-06-07T13:30:09.967Z,36.48
2019-06-07T13:31:09.198Z,36.36
2019-06-07T13:32:13.986Z,36.35
2019-06-07T13:33:19.043Z,36.18
2019-06-07T13:34:24.332Z,36.22
2019-06-07T13:35:29.619Z,35.65
2019-06-07T13:36:34.562Z,35.85
2019-06-07T13:37:38.737Z,36.11
2019-06-07T13:38:43.515Z,36.41
2019-06-07T13:39:47.681Z,36.31
2019-06-07T13:40:52.450Z,36.55
2019-06-07T13:41:56.657Z,36.22
2019-06-07T13:43:01.422Z,36.55
2019-06-07T13:44:05.939Z,36.44
2019-06-07T13:45:10.770Z,36.16
2019-06-07T13:46:14.952Z,36.51
2019-06-07T13:47:21.091Z,36.71
2019-06-07T13:48:25.440Z,36.75
2019-06-07T13:49:30.203Z,37.11
2019-06-07T13:50:34.454Z,37.57
2019-06-07T13:51:39.238Z,37.78
2019-06-07T13:52:45.156Z,37.03
2019-06-07T13:53:49.914Z,37.42
2019-06-07T13:54:54.092Z,37.55
2019-06-07T13:55:58.871Z,37.50
2019-06-07T13:57:04.363Z,37.38
2019-06-07T13:58:09.307Z,37.20
2019-06-07T13:59:13.490Z,36.07
2019-06-07T14:00:19.033Z,36.48
2019-06-07T14:01:24.626Z,36.79
2019-06-07T14:02:29.918Z,36.72
2019-06-07T14:03:34.266Z,36.61
2019-06-07T14:04:39.081Z,36.56
2019-06-07T14:05:43.263Z,35.92
2019-06-07T14:06:48.119Z,35.79
2019-06-07T14:07:52.331Z,35.67
2019-06-07T14:08:57.111Z,35.70
2019-06-07T14:10:01.429Z,36.18